63OH weather

White's Airport
Darbyville, Ohio, United States

Public forecast

Using degrees Fahrenheit for public forecast. Weather courtesy of forecast.io.

METAR (pilot weather report)

Closest report is Rickenbacker International Airport, 10.2 nm (18.8 km) NE. Retrieved 2019/05/27 12:35 UTC (0 seconds ago):

KLCK 271235Z AUTO 34003KT 10SM SCT008 OVC018 19/17 A3007 RMK AO2 T01890170

TAF (pilot weather forecast)

Closest forecast is Rickenbacker International Airport, 10.2 nm (18.8 km) NE. Retrieved 2019/05/27 12:27 UTC (3 minutes ago):

TAF KLCK 271123Z 2712/2812 03004KT P6SM BKN015 TEMPO 2712/2713 SCT015 BKN025 FM271300 VRB04KT P6SM SCT018 FM271600 17004KT P6SM SCT040 FM272300 18005KT P6SM VCSH SCT040 BKN150